sensor_id;sensor_type;location;lat;lon;timestamp;P1;durP1;ratioP1;P2;durP2;ratioP2
75589;SDS011;64169;47.240;11.312;2023-06-04T00:00:03;7.45;;;3.67;;
75589;SDS011;64169;47.240;11.312;2023-06-04T00:02:30;7.78;;;3.70;;
75589;SDS011;64169;47.240;11.312;2023-06-04T00:04:56;8.65;;;3.20;;
75589;SDS011;64169;47.240;11.312;2023-06-04T00:07:21;8.98;;;3.78;;
75589;SDS011;64169;47.240;11.312;2023-06-04T00:09:47;7.28;;;3.05;;
75589;SDS011;64169;47.240;11.312;2023-06-04T00:12:12;7.05;;;3.50;;
75589;SDS011;64169;47.240;11.312;2023-06-04T00:14:38;7.22;;;3.10;;
75589;SDS011;64169;47.240;11.312;2023-06-04T00:17:03;8.35;;;3.42;;
75589;SDS011;64169;47.240;11.312;2023-06-04T00:19:29;7.18;;;3.33;;
75589;SDS011;64169;47.240;11.312;2023-06-04T00:21:55;9.32;;;4.38;;
75589;SDS011;64169;47.240;11.312;2023-06-04T00:24:20;7.70;;;3.72;;
75589;SDS011;64169;47.240;11.312;2023-06-04T00:26:46;8.32;;;3.08;;
75589;SDS011;64169;47.240;11.312;2023-06-04T00:29:11;6.63;;;2.97;;
75589;SDS011;64169;47.240;11.312;2023-06-04T00:31:36;8.85;;;3.38;;
75589;SDS011;64169;47.240;11.312;2023-06-04T00:34:05;6.32;;;2.80;;
75589;SDS011;64169;47.240;11.312;2023-06-04T00:36:30;6.05;;;2.88;;
75589;SDS011;64169;47.240;11.312;2023-06-04T00:38:56;5.85;;;2.55;;
75589;SDS011;64169;47.240;11.312;2023-06-04T00:41:21;5.18;;;2.08;;
75589;SDS011;64169;47.240;11.312;2023-06-04T00:43:47;6.43;;;2.65;;
75589;SDS011;64169;47.240;11.312;2023-06-04T00:46:22;6.55;;;3.08;;
75589;SDS011;64169;47.240;11.312;2023-06-04T00:48:50;6.65;;;2.60;;
75589;SDS011;64169;47.240;11.312;2023-06-04T00:51:16;7.10;;;3.58;;
75589;SDS011;64169;47.240;11.312;2023-06-04T00:53:41;7.30;;;2.55;;
75589;SDS011;64169;47.240;11.312;2023-06-04T00:56:07;6.78;;;3.10;;
75589;SDS011;64169;47.240;11.312;2023-06-04T00:58:33;7.22;;;2.78;;
75589;SDS011;64169;47.240;11.312;2023-06-04T01:01:03;9.27;;;3.63;;
75589;SDS011;64169;47.240;11.312;2023-06-04T01:03:29;7.57;;;3.17;;
75589;SDS011;64169;47.240;11.312;2023-06-04T01:06:00;8.45;;;3.33;;
75589;SDS011;64169;47.240;11.312;2023-06-04T01:08:29;7.82;;;3.25;;
75589;SDS011;64169;47.240;11.312;2023-06-04T01:10:56;8.85;;;3.33;;
75589;SDS011;64169;47.240;11.312;2023-06-04T01:13:21;7.60;;;3.22;;
75589;SDS011;64169;47.240;11.312;2023-06-04T01:15:47;6.85;;;3.25;;
75589;SDS011;64169;47.240;11.312;2023-06-04T01:18:23;6.05;;;2.78;;
75589;SDS011;64169;47.240;11.312;2023-06-04T01:20:59;5.68;;;2.55;;
75589;SDS011;64169;47.240;11.312;2023-06-04T01:26:03;7.28;;;2.88;;
75589;SDS011;64169;47.240;11.312;2023-06-04T01:28:33;5.78;;;2.60;;
75589;SDS011;64169;47.240;11.312;2023-06-04T01:31:00;6.85;;;3.17;;
75589;SDS011;64169;47.240;11.312;2023-06-04T01:33:26;11.68;;;2.90;;
75589;SDS011;64169;47.240;11.312;2023-06-04T01:35:52;5.97;;;2.80;;
75589;SDS011;64169;47.240;11.312;2023-06-04T01:38:18;7.53;;;2.97;;
75589;SDS011;64169;47.240;11.312;2023-06-04T01:40:43;8.90;;;3.40;;
75589;SDS011;64169;47.240;11.312;2023-06-04T01:43:10;5.40;;;2.63;;
75589;SDS011;64169;47.240;11.312;2023-06-04T01:45:36;6.10;;;2.92;;
75589;SDS011;64169;47.240;11.312;2023-06-04T01:48:02;6.20;;;2.60;;
75589;SDS011;64169;47.240;11.312;2023-06-04T01:50:28;5.65;;;2.78;;
75589;SDS011;64169;47.240;11.312;2023-06-04T01:52:53;7.28;;;2.95;;
75589;SDS011;64169;47.240;11.312;2023-06-04T01:55:19;7.00;;;3.25;;
75589;SDS011;64169;47.240;11.312;2023-06-04T01:57:45;8.75;;;2.72;;
75589;SDS011;64169;47.240;11.312;2023-06-04T02:00:12;5.43;;;2.58;;
75589;SDS011;64169;47.240;11.312;2023-06-04T02:02:39;6.93;;;2.90;;
75589;SDS011;64169;47.240;11.312;2023-06-04T02:05:06;8.68;;;3.45;;
75589;SDS011;64169;47.240;11.312;2023-06-04T02:07:39;6.28;;;2.38;;
75589;SDS011;64169;47.240;11.312;2023-06-04T02:10:06;5.90;;;2.40;;
75589;SDS011;64169;47.240;11.312;2023-06-04T02:12:33;6.55;;;2.30;;
75589;SDS011;64169;47.240;11.312;2023-06-04T02:15:00;5.90;;;1.80;;
75589;SDS011;64169;47.240;11.312;2023-06-04T02:17:26;5.90;;;2.20;;
75589;SDS011;64169;47.240;11.312;2023-06-04T02:19:51;5.65;;;2.30;;
75589;SDS011;64169;47.240;11.312;2023-06-04T02:22:17;6.00;;;2.45;;
75589;SDS011;64169;47.240;11.312;2023-06-04T02:24:43;6.07;;;2.60;;
75589;SDS011;64169;47.240;11.312;2023-06-04T02:27:09;6.63;;;2.78;;
75589;SDS011;64169;47.240;11.312;2023-06-04T02:29:35;7.10;;;2.83;;
75589;SDS011;64169;47.240;11.312;2023-06-04T02:32:01;5.70;;;2.20;;
75589;SDS011;64169;47.240;11.312;2023-06-04T02:34:28;5.15;;;2.22;;
75589;SDS011;64169;47.240;11.312;2023-06-04T02:36:54;6.10;;;2.53;;
75589;SDS011;64169;47.240;11.312;2023-06-04T02:39:19;5.63;;;2.22;;
75589;SDS011;64169;47.240;11.312;2023-06-04T02:41:45;5.70;;;2.40;;
75589;SDS011;64169;47.240;11.312;2023-06-04T02:44:10;5.47;;;2.15;;
75589;SDS011;64169;47.240;11.312;2023-06-04T02:46:36;7.20;;;2.50;;
75589;SDS011;64169;47.240;11.312;2023-06-04T02:49:02;5.85;;;2.53;;
75589;SDS011;64169;47.240;11.312;2023-06-04T02:51:28;5.97;;;2.55;;
75589;SDS011;64169;47.240;11.312;2023-06-04T02:53:53;5.90;;;2.10;;
75589;SDS011;64169;47.240;11.312;2023-06-04T02:56:19;5.63;;;2.58;;
75589;SDS011;64169;47.240;11.312;2023-06-04T02:58:55;5.50;;;2.25;;
75589;SDS011;64169;47.240;11.312;2023-06-04T03:01:24;6.65;;;3.05;;
75589;SDS011;64169;47.240;11.312;2023-06-04T03:03:51;6.07;;;2.55;;
75589;SDS011;64169;47.240;11.312;2023-06-04T03:06:17;6.22;;;2.78;;
75589;SDS011;64169;47.240;11.312;2023-06-04T03:08:46;6.38;;;2.25;;
75589;SDS011;64169;47.240;11.312;2023-06-04T03:11:12;5.88;;;2.50;;
75589;SDS011;64169;47.240;11.312;2023-06-04T03:13:37;5.88;;;2.30;;
75589;SDS011;64169;47.240;11.312;2023-06-04T03:16:03;5.80;;;2.38;;
75589;SDS011;64169;47.240;11.312;2023-06-04T03:18:28;5.82;;;2.38;;
75589;SDS011;64169;47.240;11.312;2023-06-04T03:20:54;5.72;;;2.00;;
75589;SDS011;64169;47.240;11.312;2023-06-04T03:23:23;5.82;;;2.25;;
75589;SDS011;64169;47.240;11.312;2023-06-04T03:25:48;6.40;;;2.47;;
75589;SDS011;64169;47.240;11.312;2023-06-04T03:28:13;5.45;;;2.22;;
75589;SDS011;64169;47.240;11.312;2023-06-04T03:30:40;6.45;;;2.35;;
75589;SDS011;64169;47.240;11.312;2023-06-04T03:33:05;6.05;;;2.42;;
75589;SDS011;64169;47.240;11.312;2023-06-04T03:35:31;6.88;;;2.60;;
75589;SDS011;64169;47.240;11.312;2023-06-04T03:37:56;6.38;;;2.85;;
75589;SDS011;64169;47.240;11.312;2023-06-04T03:40:22;6.70;;;2.40;;
75589;SDS011;64169;47.240;11.312;2023-06-04T03:42:47;6.43;;;2.50;;
75589;SDS011;64169;47.240;11.312;2023-06-04T03:45:13;6.70;;;2.72;;
75589;SDS011;64169;47.240;11.312;2023-06-04T03:47:38;7.35;;;2.63;;
75589;SDS011;64169;47.240;11.312;2023-06-04T03:50:04;6.65;;;3.33;;
75589;SDS011;64169;47.240;11.312;2023-06-04T03:52:30;7.57;;;3.13;;
75589;SDS011;64169;47.240;11.312;2023-06-04T03:54:56;6.63;;;2.80;;
75589;SDS011;64169;47.240;11.312;2023-06-04T03:57:22;7.85;;;3.40;;
75589;SDS011;64169;47.240;11.312;2023-06-04T03:59:47;6.78;;;3.25;;
75589;SDS011;64169;47.240;11.312;2023-06-04T04:02:13;7.82;;;3.42;;
75589;SDS011;64169;47.240;11.312;2023-06-04T04:04:38;6.90;;;3.28;;
75589;SDS011;64169;47.240;11.312;2023-06-04T04:07:03;8.73;;;3.38;;
75589;SDS011;64169;47.240;11.312;2023-06-04T04:09:29;7.88;;;3.38;;
75589;SDS011;64169;47.240;11.312;2023-06-04T04:11:54;8.70;;;4.45;;
75589;SDS011;64169;47.240;11.312;2023-06-04T04:14:20;7.85;;;3.25;;
75589;SDS011;64169;47.240;11.312;2023-06-04T04:16:45;7.88;;;3.55;;
75589;SDS011;64169;47.240;11.312;2023-06-04T04:19:11;7.35;;;3.47;;
75589;SDS011;64169;47.240;11.312;2023-06-04T04:21:37;7.60;;;3.10;;
75589;SDS011;64169;47.240;11.312;2023-06-04T04:24:03;6.70;;;2.85;;
75589;SDS011;64169;47.240;11.312;2023-06-04T04:26:29;8.02;;;3.60;;
75589;SDS011;64169;47.240;11.312;2023-06-04T04:28:55;7.10;;;3.20;;
75589;SDS011;64169;47.240;11.312;2023-06-04T04:31:25;7.15;;;3.60;;
75589;SDS011;64169;47.240;11.312;2023-06-04T04:33:51;6.55;;;3.30;;
75589;SDS011;64169;47.240;11.312;2023-06-04T04:36:17;6.90;;;2.85;;
75589;SDS011;64169;47.240;11.312;2023-06-04T04:38:43;7.07;;;3.00;;
75589;SDS011;64169;47.240;11.312;2023-06-04T04:41:10;7.65;;;3.35;;
75589;SDS011;64169;47.240;11.312;2023-06-04T04:43:37;6.93;;;2.85;;
75589;SDS011;64169;47.240;11.312;2023-06-04T04:46:04;6.38;;;2.60;;
75589;SDS011;64169;47.240;11.312;2023-06-04T04:48:32;6.05;;;2.78;;
75589;SDS011;64169;47.240;11.312;2023-06-04T04:50:58;5.68;;;2.38;;
75589;SDS011;64169;47.240;11.312;2023-06-04T04:53:23;6.95;;;2.58;;
75589;SDS011;64169;47.240;11.312;2023-06-04T04:55:52;7.03;;;2.95;;
75589;SDS011;64169;47.240;11.312;2023-06-04T04:58:17;8.80;;;3.15;;
75589;SDS011;64169;47.240;11.312;2023-06-04T05:00:43;7.00;;;2.83;;
75589;SDS011;64169;47.240;11.312;2023-06-04T05:03:09;6.22;;;2.83;;
75589;SDS011;64169;47.240;11.312;2023-06-04T05:05:34;8.60;;;3.17;;
75589;SDS011;64169;47.240;11.312;2023-06-04T05:08:00;5.82;;;3.30;;
75589;SDS011;64169;47.240;11.312;2023-06-04T05:10:25;6.47;;;2.85;;
75589;SDS011;64169;47.240;11.312;2023-06-04T05:12:51;7.70;;;3.42;;
75589;SDS011;64169;47.240;11.312;2023-06-04T05:15:18;8.52;;;3.20;;
75589;SDS011;64169;47.240;11.312;2023-06-04T05:17:44;6.50;;;2.95;;
75589;SDS011;64169;47.240;11.312;2023-06-04T05:20:11;7.05;;;2.55;;
75589;SDS011;64169;47.240;11.312;2023-06-04T05:22:38;6.97;;;2.92;;
75589;SDS011;64169;47.240;11.312;2023-06-04T05:25:04;6.45;;;2.70;;
75589;SDS011;64169;47.240;11.312;2023-06-04T05:27:30;6.03;;;2.75;;
75589;SDS011;64169;47.240;11.312;2023-06-04T05:29:57;6.00;;;2.53;;
75589;SDS011;64169;47.240;11.312;2023-06-04T05:32:26;6.78;;;3.13;;
75589;SDS011;64169;47.240;11.312;2023-06-04T05:34:53;6.20;;;2.85;;
75589;SDS011;64169;47.240;11.312;2023-06-04T05:37:22;6.10;;;3.00;;
75589;SDS011;64169;47.240;11.312;2023-06-04T05:39:49;5.93;;;2.50;;
75589;SDS011;64169;47.240;11.312;2023-06-04T05:42:15;6.07;;;2.50;;
75589;SDS011;64169;47.240;11.312;2023-06-04T05:44:40;6.10;;;2.72;;
75589;SDS011;64169;47.240;11.312;2023-06-04T05:47:06;7.05;;;2.50;;
75589;SDS011;64169;47.240;11.312;2023-06-04T05:49:33;6.57;;;2.58;;
75589;SDS011;64169;47.240;11.312;2023-06-04T05:51:59;5.40;;;2.33;;
75589;SDS011;64169;47.240;11.312;2023-06-04T05:54:26;5.97;;;2.17;;
75589;SDS011;64169;47.240;11.312;2023-06-04T05:56:51;4.97;;;2.20;;
75589;SDS011;64169;47.240;11.312;2023-06-04T05:59:17;5.72;;;2.33;;
75589;SDS011;64169;47.240;11.312;2023-06-04T06:01:42;6.20;;;2.72;;
75589;SDS011;64169;47.240;11.312;2023-06-04T06:04:08;6.53;;;3.60;;
75589;SDS011;64169;47.240;11.312;2023-06-04T06:06:34;6.43;;;2.95;;
75589;SDS011;64169;47.240;11.312;2023-06-04T06:09:00;7.07;;;3.70;;
75589;SDS011;64169;47.240;11.312;2023-06-04T06:11:26;8.20;;;3.22;;
75589;SDS011;64169;47.240;11.312;2023-06-04T06:13:52;7.13;;;3.58;;
75589;SDS011;64169;47.240;11.312;2023-06-04T06:16:17;6.45;;;3.30;;
75589;SDS011;64169;47.240;11.312;2023-06-04T06:18:43;6.78;;;3.00;;
75589;SDS011;64169;47.240;11.312;2023-06-04T06:21:09;10.93;;;4.10;;
75589;SDS011;64169;47.240;11.312;2023-06-04T06:23:34;6.80;;;3.10;;
75589;SDS011;64169;47.240;11.312;2023-06-04T06:26:00;12.32;;;3.67;;
75589;SDS011;64169;47.240;11.312;2023-06-04T06:28:27;7.07;;;3.80;;
75589;SDS011;64169;47.240;11.312;2023-06-04T06:30:52;6.85;;;3.33;;
75589;SDS011;64169;47.240;11.312;2023-06-04T06:33:18;6.45;;;3.30;;
75589;SDS011;64169;47.240;11.312;2023-06-04T06:35:48;8.05;;;3.47;;
75589;SDS011;64169;47.240;11.312;2023-06-04T06:38:14;8.18;;;3.50;;
75589;SDS011;64169;47.240;11.312;2023-06-04T06:40:40;7.30;;;4.00;;
75589;SDS011;64169;47.240;11.312;2023-06-04T06:43:06;7.93;;;3.08;;
75589;SDS011;64169;47.240;11.312;2023-06-04T06:45:31;10.60;;;3.35;;
75589;SDS011;64169;47.240;11.312;2023-06-04T06:47:57;6.72;;;3.33;;
75589;SDS011;64169;47.240;11.312;2023-06-04T06:50:22;8.02;;;3.55;;
75589;SDS011;64169;47.240;11.312;2023-06-04T06:52:48;7.57;;;3.33;;
75589;SDS011;64169;47.240;11.312;2023-06-04T06:55:13;6.75;;;2.92;;
75589;SDS011;64169;47.240;11.312;2023-06-04T06:57:38;6.28;;;2.92;;
75589;SDS011;64169;47.240;11.312;2023-06-04T07:00:04;6.88;;;3.10;;
75589;SDS011;64169;47.240;11.312;2023-06-04T07:02:31;8.18;;;3.70;;
75589;SDS011;64169;47.240;11.312;2023-06-04T07:04:56;6.53;;;3.33;;
75589;SDS011;64169;47.240;11.312;2023-06-04T07:07:22;7.25;;;3.65;;
75589;SDS011;64169;47.240;11.312;2023-06-04T07:09:47;11.65;;;4.63;;
75589;SDS011;64169;47.240;11.312;2023-06-04T07:12:13;7.25;;;3.80;;
75589;SDS011;64169;47.240;11.312;2023-06-04T07:14:38;7.00;;;3.80;;
75589;SDS011;64169;47.240;11.312;2023-06-04T07:17:03;6.93;;;3.22;;
75589;SDS011;64169;47.240;11.312;2023-06-04T07:19:29;7.35;;;3.40;;
75589;SDS011;64169;47.240;11.312;2023-06-04T07:21:54;7.43;;;3.72;;
75589;SDS011;64169;47.240;11.312;2023-06-04T07:24:23;7.75;;;3.90;;
75589;SDS011;64169;47.240;11.312;2023-06-04T07:26:48;8.95;;;4.28;;
75589;SDS011;64169;47.240;11.312;2023-06-04T07:29:14;6.80;;;3.75;;
75589;SDS011;64169;47.240;11.312;2023-06-04T07:31:40;7.07;;;3.60;;
75589;SDS011;64169;47.240;11.312;2023-06-04T07:34:06;7.05;;;3.33;;
75589;SDS011;64169;47.240;11.312;2023-06-04T07:36:31;7.30;;;4.10;;
75589;SDS011;64169;47.240;11.312;2023-06-04T07:38:57;6.72;;;3.40;;
75589;SDS011;64169;47.240;11.312;2023-06-04T07:41:23;7.70;;;3.42;;
75589;SDS011;64169;47.240;11.312;2023-06-04T07:43:49;7.35;;;3.63;;
75589;SDS011;64169;47.240;11.312;2023-06-04T07:46:14;8.27;;;4.00;;
75589;SDS011;64169;47.240;11.312;2023-06-04T07:48:43;7.22;;;3.40;;
75589;SDS011;64169;47.240;11.312;2023-06-04T07:51:09;7.90;;;3.50;;
75589;SDS011;64169;47.240;11.312;2023-06-04T07:53:36;7.70;;;3.80;;
75589;SDS011;64169;47.240;11.312;2023-06-04T07:56:03;6.55;;;3.58;;
75589;SDS011;64169;47.240;11.312;2023-06-04T07:58:28;5.72;;;2.60;;
75589;SDS011;64169;47.240;11.312;2023-06-04T08:00:54;6.90;;;3.20;;
75589;SDS011;64169;47.240;11.312;2023-06-04T08:03:21;6.07;;;2.75;;
75589;SDS011;64169;47.240;11.312;2023-06-04T08:05:46;6.55;;;3.08;;
75589;SDS011;64169;47.240;11.312;2023-06-04T08:08:12;7.07;;;3.08;;
75589;SDS011;64169;47.240;11.312;2023-06-04T08:10:39;7.03;;;3.65;;
75589;SDS011;64169;47.240;11.312;2023-06-04T08:13:05;7.15;;;2.83;;
75589;SDS011;64169;47.240;11.312;2023-06-04T08:15:30;5.30;;;2.60;;
75589;SDS011;64169;47.240;11.312;2023-06-04T08:17:56;6.25;;;3.15;;
75589;SDS011;64169;47.240;11.312;2023-06-04T08:20:24;5.75;;;2.65;;
75589;SDS011;64169;47.240;11.312;2023-06-04T08:22:52;6.15;;;2.88;;
75589;SDS011;64169;47.240;11.312;2023-06-04T08:25:18;6.03;;;2.83;;
75589;SDS011;64169;47.240;11.312;2023-06-04T08:27:43;6.03;;;2.58;;
75589;SDS011;64169;47.240;11.312;2023-06-04T08:30:09;7.03;;;2.90;;
75589;SDS011;64169;47.240;11.312;2023-06-04T08:32:34;6.55;;;2.78;;
75589;SDS011;64169;47.240;11.312;2023-06-04T08:35:00;6.18;;;2.90;;
75589;SDS011;64169;47.240;11.312;2023-06-04T08:37:25;6.60;;;3.42;;
75589;SDS011;64169;47.240;11.312;2023-06-04T08:39:51;6.25;;;2.63;;
75589;SDS011;64169;47.240;11.312;2023-06-04T08:42:22;6.68;;;3.22;;
75589;SDS011;64169;47.240;11.312;2023-06-04T08:44:52;6.68;;;2.95;;
75589;SDS011;64169;47.240;11.312;2023-06-04T08:47:18;5.03;;;2.30;;
75589;SDS011;64169;47.240;11.312;2023-06-04T08:49:44;5.53;;;2.40;;
75589;SDS011;64169;47.240;11.312;2023-06-04T08:52:14;5.63;;;2.50;;
75589;SDS011;64169;47.240;11.312;2023-06-04T08:54:39;6.97;;;2.70;;
75589;SDS011;64169;47.240;11.312;2023-06-04T08:57:05;4.78;;;2.03;;
75589;SDS011;64169;47.240;11.312;2023-06-04T08:59:31;6.95;;;2.95;;
75589;SDS011;64169;47.240;11.312;2023-06-04T09:01:56;6.05;;;2.70;;
75589;SDS011;64169;47.240;11.312;2023-06-04T09:04:22;6.43;;;2.95;;
75589;SDS011;64169;47.240;11.312;2023-06-04T09:06:48;5.95;;;2.25;;
75589;SDS011;64169;47.240;11.312;2023-06-04T09:09:14;6.15;;;2.28;;
75589;SDS011;64169;47.240;11.312;2023-06-04T09:11:45;5.13;;;2.00;;
75589;SDS011;64169;47.240;11.312;2023-06-04T09:14:14;5.05;;;2.10;;
75589;SDS011;64169;47.240;11.312;2023-06-04T09:19:10;7.43;;;2.55;;
75589;SDS011;64169;47.240;11.312;2023-06-04T09:21:45;5.65;;;2.55;;
75589;SDS011;64169;47.240;11.312;2023-06-04T09:24:14;4.70;;;1.83;;
75589;SDS011;64169;47.240;11.312;2023-06-04T09:26:40;5.43;;;2.25;;
75589;SDS011;64169;47.240;11.312;2023-06-04T09:29:05;4.70;;;1.98;;
75589;SDS011;64169;47.240;11.312;2023-06-04T09:31:31;4.30;;;1.77;;
75589;SDS011;64169;47.240;11.312;2023-06-04T09:34:02;5.20;;;2.00;;
75589;SDS011;64169;47.240;11.312;2023-06-04T09:36:31;4.80;;;1.90;;
75589;SDS011;64169;47.240;11.312;2023-06-04T09:38:57;4.55;;;1.80;;
75589;SDS011;64169;47.240;11.312;2023-06-04T09:41:23;4.72;;;1.83;;
75589;SDS011;64169;47.240;11.312;2023-06-04T09:43:49;4.35;;;1.75;;
75589;SDS011;64169;47.240;11.312;2023-06-04T09:46:15;4.88;;;1.83;;
75589;SDS011;64169;47.240;11.312;2023-06-04T09:48:42;6.18;;;2.08;;
75589;SDS011;64169;47.240;11.312;2023-06-04T09:51:12;5.60;;;1.90;;
75589;SDS011;64169;47.240;11.312;2023-06-04T09:53:40;4.88;;;1.77;;
75589;SDS011;64169;47.240;11.312;2023-06-04T09:56:06;4.63;;;1.88;;
75589;SDS011;64169;47.240;11.312;2023-06-04T09:58:32;4.72;;;2.00;;
75589;SDS011;64169;47.240;11.312;2023-06-04T10:00:59;5.53;;;2.13;;
75589;SDS011;64169;47.240;11.312;2023-06-04T10:03:33;4.90;;;2.00;;
75589;SDS011;64169;47.240;11.312;2023-06-04T10:06:03;4.47;;;1.70;;
75589;SDS011;64169;47.240;11.312;2023-06-04T10:08:30;5.00;;;1.85;;
75589;SDS011;64169;47.240;11.312;2023-06-04T10:10:58;6.45;;;2.00;;
75589;SDS011;64169;47.240;11.312;2023-06-04T10:13:26;5.18;;;1.77;;
75589;SDS011;64169;47.240;11.312;2023-06-04T10:15:53;4.82;;;2.00;;
75589;SDS011;64169;47.240;11.312;2023-06-04T10:18:19;6.07;;;2.20;;
75589;SDS011;64169;47.240;11.312;2023-06-04T10:20:45;4.63;;;2.08;;
75589;SDS011;64169;47.240;11.312;2023-06-04T10:23:11;4.63;;;1.95;;
75589;SDS011;64169;47.240;11.312;2023-06-04T10:25:37;5.40;;;2.25;;
75589;SDS011;64169;47.240;11.312;2023-06-04T10:28:03;4.40;;;1.80;;
75589;SDS011;64169;47.240;11.312;2023-06-04T10:30:29;5.38;;;2.28;;
75589;SDS011;64169;47.240;11.312;2023-06-04T10:32:58;4.68;;;1.98;;
75589;SDS011;64169;47.240;11.312;2023-06-04T10:35:34;4.78;;;1.60;;
75589;SDS011;64169;47.240;11.312;2023-06-04T10:38:09;4.80;;;1.95;;
75589;SDS011;64169;47.240;11.312;2023-06-04T10:40:36;4.75;;;1.58;;
75589;SDS011;64169;47.240;11.312;2023-06-04T10:43:08;5.28;;;2.20;;
75589;SDS011;64169;47.240;11.312;2023-06-04T10:45:35;4.95;;;2.20;;
75589;SDS011;64169;47.240;11.312;2023-06-04T10:48:03;7.78;;;2.10;;
75589;SDS011;64169;47.240;11.312;2023-06-04T10:50:31;4.53;;;2.20;;
75589;SDS011;64169;47.240;11.312;2023-06-04T10:52:58;5.55;;;2.20;;
75589;SDS011;64169;47.240;11.312;2023-06-04T10:55:24;5.65;;;2.30;;
75589;SDS011;64169;47.240;11.312;2023-06-04T10:57:56;5.20;;;2.03;;
75589;SDS011;64169;47.240;11.312;2023-06-04T11:00:39;5.15;;;1.88;;
75589;SDS011;64169;47.240;11.312;2023-06-04T11:03:05;5.55;;;2.00;;
75589;SDS011;64169;47.240;11.312;2023-06-04T11:05:37;4.72;;;2.15;;
75589;SDS011;64169;47.240;11.312;2023-06-04T11:08:04;5.60;;;1.88;;
75589;SDS011;64169;47.240;11.312;2023-06-04T11:10:41;5.32;;;2.10;;
75589;SDS011;64169;47.240;11.312;2023-06-04T11:13:07;4.85;;;1.90;;
75589;SDS011;64169;47.240;11.312;2023-06-04T11:15:40;6.00;;;2.10;;
75589;SDS011;64169;47.240;11.312;2023-06-04T11:18:07;7.43;;;2.10;;
75589;SDS011;64169;47.240;11.312;2023-06-04T11:20:32;5.72;;;2.20;;
75589;SDS011;64169;47.240;11.312;2023-06-04T11:22:58;5.57;;;2.00;;
75589;SDS011;64169;47.240;11.312;2023-06-04T11:25:28;4.80;;;2.17;;
75589;SDS011;64169;47.240;11.312;2023-06-04T11:27:55;5.78;;;2.50;;
75589;SDS011;64169;47.240;11.312;2023-06-04T11:30:22;5.55;;;2.00;;
75589;SDS011;64169;47.240;11.312;2023-06-04T11:32:48;6.47;;;2.25;;
75589;SDS011;64169;47.240;11.312;2023-06-04T11:35:13;8.35;;;3.33;;
75589;SDS011;64169;47.240;11.312;2023-06-04T11:37:40;5.10;;;2.15;;
75589;SDS011;64169;47.240;11.312;2023-06-04T11:40:14;7.65;;;3.05;;
75589;SDS011;64169;47.240;11.312;2023-06-04T11:42:44;17.83;;;7.88;;
75589;SDS011;64169;47.240;11.312;2023-06-04T11:45:12;11.63;;;5.75;;
75589;SDS011;64169;47.240;11.312;2023-06-04T11:47:39;36.28;;;14.98;;
75589;SDS011;64169;47.240;11.312;2023-06-04T11:50:28;9.27;;;4.38;;
75589;SDS011;64169;47.240;11.312;2023-06-04T11:52:54;16.33;;;6.80;;
75589;SDS011;64169;47.240;11.312;2023-06-04T11:55:20;11.95;;;5.13;;
75589;SDS011;64169;47.240;11.312;2023-06-04T11:57:46;43.75;;;14.07;;
75589;SDS011;64169;47.240;11.312;2023-06-04T12:00:14;46.55;;;16.63;;
75589;SDS011;64169;47.240;11.312;2023-06-04T12:02:50;58.05;;;22.20;;
75589;SDS011;64169;47.240;11.312;2023-06-04T12:05:17;7.53;;;3.33;;
75589;SDS011;64169;47.240;11.312;2023-06-04T12:07:43;22.50;;;7.65;;
75589;SDS011;64169;47.240;11.312;2023-06-04T12:10:09;11.85;;;4.45;;
75589;SDS011;64169;47.240;11.312;2023-06-04T12:12:36;11.73;;;4.53;;
75589;SDS011;64169;47.240;11.312;2023-06-04T12:15:02;4.65;;;1.95;;
75589;SDS011;64169;47.240;11.312;2023-06-04T12:17:30;5.78;;;2.30;;
75589;SDS011;64169;47.240;11.312;2023-06-04T12:19:56;6.70;;;2.78;;
75589;SDS011;64169;47.240;11.312;2023-06-04T12:22:23;9.95;;;3.60;;
75589;SDS011;64169;47.240;11.312;2023-06-04T12:24:50;7.18;;;3.40;;
75589;SDS011;64169;47.240;11.312;2023-06-04T12:27:21;5.95;;;2.63;;
75589;SDS011;64169;47.240;11.312;2023-06-04T12:29:57;5.85;;;2.50;;
75589;SDS011;64169;47.240;11.312;2023-06-04T12:32:24;5.22;;;2.35;;
75589;SDS011;64169;47.240;11.312;2023-06-04T12:34:49;5.25;;;2.20;;
75589;SDS011;64169;47.240;11.312;2023-06-04T12:37:15;5.47;;;2.55;;
75589;SDS011;64169;47.240;11.312;2023-06-04T12:39:40;5.10;;;2.20;;
75589;SDS011;64169;47.240;11.312;2023-06-04T12:42:06;6.03;;;2.53;;
75589;SDS011;64169;47.240;11.312;2023-06-04T12:44:35;6.53;;;2.90;;
75589;SDS011;64169;47.240;11.312;2023-06-04T12:47:02;4.75;;;2.03;;
75589;SDS011;64169;47.240;11.312;2023-06-04T12:49:28;5.82;;;2.35;;
75589;SDS011;64169;47.240;11.312;2023-06-04T12:51:53;5.40;;;2.05;;
75589;SDS011;64169;47.240;11.312;2023-06-04T12:54:18;5.88;;;2.13;;
75589;SDS011;64169;47.240;11.312;2023-06-04T12:56:44;7.18;;;2.53;;
75589;SDS011;64169;47.240;11.312;2023-06-04T12:59:10;5.50;;;2.38;;
75589;SDS011;64169;47.240;11.312;2023-06-04T13:01:36;8.23;;;2.65;;
75589;SDS011;64169;47.240;11.312;2023-06-04T13:04:03;5.90;;;2.67;;
75589;SDS011;64169;47.240;11.312;2023-06-04T13:06:29;9.52;;;4.43;;
75589;SDS011;64169;47.240;11.312;2023-06-04T13:08:54;6.22;;;2.70;;
75589;SDS011;64169;47.240;11.312;2023-06-04T13:11:20;6.75;;;2.35;;
75589;SDS011;64169;47.240;11.312;2023-06-04T13:13:46;5.90;;;2.67;;
75589;SDS011;64169;47.240;11.312;2023-06-04T13:16:12;7.38;;;3.65;;
75589;SDS011;64169;47.240;11.312;2023-06-04T13:18:38;5.85;;;2.67;;
75589;SDS011;64169;47.240;11.312;2023-06-04T13:21:03;7.13;;;2.47;;
75589;SDS011;64169;47.240;11.312;2023-06-04T13:23:28;5.30;;;2.50;;
75589;SDS011;64169;47.240;11.312;2023-06-04T13:25:54;10.38;;;2.45;;
75589;SDS011;64169;47.240;11.312;2023-06-04T13:28:19;6.93;;;2.17;;
75589;SDS011;64169;47.240;11.312;2023-06-04T13:30:45;7.32;;;2.40;;
75589;SDS011;64169;47.240;11.312;2023-06-04T13:33:11;4.88;;;2.10;;
75589;SDS011;64169;47.240;11.312;2023-06-04T13:35:36;5.57;;;2.22;;
75589;SDS011;64169;47.240;11.312;2023-06-04T13:38:03;6.35;;;2.13;;
75589;SDS011;64169;47.240;11.312;2023-06-04T13:40:30;7.60;;;2.20;;
75589;SDS011;64169;47.240;11.312;2023-06-04T13:42:56;5.20;;;2.00;;
75589;SDS011;64169;47.240;11.312;2023-06-04T13:45:21;5.72;;;2.03;;
75589;SDS011;64169;47.240;11.312;2023-06-04T13:47:47;5.22;;;1.90;;
75589;SDS011;64169;47.240;11.312;2023-06-04T13:50:16;4.93;;;2.00;;
75589;SDS011;64169;47.240;11.312;2023-06-04T13:52:42;5.47;;;1.98;;
75589;SDS011;64169;47.240;11.312;2023-06-04T13:55:08;6.60;;;2.35;;
75589;SDS011;64169;47.240;11.312;2023-06-04T13:57:33;6.88;;;2.53;;
75589;SDS011;64169;47.240;11.312;2023-06-04T13:59:59;6.55;;;2.28;;
75589;SDS011;64169;47.240;11.312;2023-06-04T14:02:25;5.97;;;2.42;;
75589;SDS011;64169;47.240;11.312;2023-06-04T14:04:52;6.28;;;2.35;;
75589;SDS011;64169;47.240;11.312;2023-06-04T14:07:18;6.63;;;2.65;;
75589;SDS011;64169;47.240;11.312;2023-06-04T14:09:44;8.10;;;3.30;;
75589;SDS011;64169;47.240;11.312;2023-06-04T14:12:09;6.38;;;2.70;;
75589;SDS011;64169;47.240;11.312;2023-06-04T14:14:35;6.72;;;2.72;;
75589;SDS011;64169;47.240;11.312;2023-06-04T14:17:03;6.18;;;2.78;;
75589;SDS011;64169;47.240;11.312;2023-06-04T14:19:29;5.88;;;2.33;;
75589;SDS011;64169;47.240;11.312;2023-06-04T14:21:55;5.63;;;2.50;;
75589;SDS011;64169;47.240;11.312;2023-06-04T14:24:21;7.10;;;2.90;;
75589;SDS011;64169;47.240;11.312;2023-06-04T14:26:46;5.40;;;2.45;;
75589;SDS011;64169;47.240;11.312;2023-06-04T14:29:12;5.85;;;2.33;;
75589;SDS011;64169;47.240;11.312;2023-06-04T14:31:38;8.18;;;2.90;;
75589;SDS011;64169;47.240;11.312;2023-06-04T14:34:03;7.72;;;2.88;;